Main page
METAR-TAF:

METAR-TAF

Airports :

Bad Vöslau Airport

Bad Vöslau, Austria

latitude: 47-57-52N, longitude: 016-15-34E, elevation: 233 m

Current weather observation

The report was made 54 minutes ago, at 12:00 UTC
Wind 7 kt from the South/Southwest
Temperature 9°C
Humidity 66%
Pressure

METAR: LOAV 141200Z 20007KT 20KM BKN030CU 09/03

Time: 13:54 (12:54 UTC)

Forecast

The report was made 49 minutes ago, at 12:05 UTC
Forecast valid from 14 at 12 UTC to 14 at 21 UTC
Wind 7 kt from the South/Southwest
Visibility 10 km or more
Few clouds at a height of 3000 ft
Scattered clouds at a height of 5000 ft
Temporary
from 14 at 12 UTC to 14 at 13 UTC
Wind 13 kt from the West
Broken clouds at a height of 2500 ft
light rain
Temporary
from 14 at 13 UTC to 14 at 20 UTC
Wind 20 kt from the West with gusts up to 30 kt

TAF: LOAV 141205Z 1412/1421 21007KT 9999 FEW030 SCT050 TEMPO 1412/1413 28013KT -RA BKN025 TEMPO 1413/1420 28020G30KT

Weather observations and forecasts of more than 4000 airports (METAR and TAF reports).

The available stations are represented by yellow and red dots on the map.

Hover mouse over dot to see the name of the station.

Then click to see weather observations and forecasts.

To change the map : click on the green buttons with a black cross to zoom in, on the green button with a dash to zoom out, or on the green arrows for adjacent maps.


METAR-TAF: